sensor_id;sensor_type;location;lat;lon;timestamp;temperature;humidity
46758;DHT22;32509;47.750;-3.396;2023-08-31T00:00:43;18.50;99.90
46758;DHT22;32509;47.750;-3.396;2023-08-31T00:03:13;18.50;99.90
46758;DHT22;32509;47.750;-3.396;2023-08-31T00:05:43;18.50;99.90
46758;DHT22;32509;47.750;-3.396;2023-08-31T00:08:10;18.50;99.90
46758;DHT22;32509;47.750;-3.396;2023-08-31T00:10:38;18.50;99.90
46758;DHT22;32509;47.750;-3.396;2023-08-31T00:13:05;18.50;99.90
46758;DHT22;32509;47.750;-3.396;2023-08-31T00:15:33;18.50;99.90
46758;DHT22;32509;47.750;-3.396;2023-08-31T00:18:01;18.50;99.90
46758;DHT22;32509;47.750;-3.396;2023-08-31T00:20:30;18.50;99.90
46758;DHT22;32509;47.750;-3.396;2023-08-31T00:22:56;18.50;99.90
46758;DHT22;32509;47.750;-3.396;2023-08-31T00:25:22;18.50;99.90
46758;DHT22;32509;47.750;-3.396;2023-08-31T00:27:47;18.50;99.90
46758;DHT22;32509;47.750;-3.396;2023-08-31T00:30:14;18.50;99.90
46758;DHT22;32509;47.750;-3.396;2023-08-31T00:32:43;18.50;99.90
46758;DHT22;32509;47.750;-3.396;2023-08-31T00:35:09;18.50;99.90
46758;DHT22;32509;47.750;-3.396;2023-08-31T00:37:35;18.50;99.90
46758;DHT22;32509;47.750;-3.396;2023-08-31T00:40:02;18.50;99.90
46758;DHT22;32509;47.750;-3.396;2023-08-31T00:42:30;18.50;99.90
46758;DHT22;32509;47.750;-3.396;2023-08-31T00:44:56;18.50;99.90
46758;DHT22;32509;47.750;-3.396;2023-08-31T00:47:22;18.50;99.90
46758;DHT22;32509;47.750;-3.396;2023-08-31T00:49:48;18.50;99.90
46758;DHT22;32509;47.750;-3.396;2023-08-31T00:52:15;18.50;99.90
46758;DHT22;32509;47.750;-3.396;2023-08-31T00:54:41;18.50;99.90
46758;DHT22;32509;47.750;-3.396;2023-08-31T00:57:08;18.50;99.90
46758;DHT22;32509;47.750;-3.396;2023-08-31T00:59:34;18.50;99.90
46758;DHT22;32509;47.750;-3.396;2023-08-31T01:02:07;18.50;99.90
46758;DHT22;32509;47.750;-3.396;2023-08-31T01:10:22;18.50;99.90
46758;DHT22;32509;47.750;-3.396;2023-08-31T01:13:03;18.50;99.90
46758;DHT22;32509;47.750;-3.396;2023-08-31T01:15:38;18.50;99.90
46758;DHT22;32509;47.750;-3.396;2023-08-31T01:18:07;18.50;99.90
46758;DHT22;32509;47.750;-3.396;2023-08-31T01:20:38;18.50;99.90
46758;DHT22;32509;47.750;-3.396;2023-08-31T01:23:09;18.50;99.90
46758;DHT22;32509;47.750;-3.396;2023-08-31T01:25:36;18.50;99.90
46758;DHT22;32509;47.750;-3.396;2023-08-31T01:28:02;18.50;99.90
46758;DHT22;32509;47.750;-3.396;2023-08-31T01:30:32;18.50;99.90
46758;DHT22;32509;47.750;-3.396;2023-08-31T01:32:58;18.50;99.90
46758;DHT22;32509;47.750;-3.396;2023-08-31T01:35:28;18.50;99.90
46758;DHT22;32509;47.750;-3.396;2023-08-31T01:38:04;18.50;99.90
46758;DHT22;32509;47.750;-3.396;2023-08-31T01:40:54;18.50;99.90
46758;DHT22;32509;47.750;-3.396;2023-08-31T01:43:23;18.50;99.90
46758;DHT22;32509;47.750;-3.396;2023-08-31T01:45:49;18.50;99.90
46758;DHT22;32509;47.750;-3.396;2023-08-31T01:48:16;18.50;99.90
46758;DHT22;32509;47.750;-3.396;2023-08-31T01:50:42;18.50;99.90
46758;DHT22;32509;47.750;-3.396;2023-08-31T01:53:07;18.50;99.90
46758;DHT22;32509;47.750;-3.396;2023-08-31T01:55:33;18.50;99.90
46758;DHT22;32509;47.750;-3.396;2023-08-31T01:57:59;18.50;99.90
46758;DHT22;32509;47.750;-3.396;2023-08-31T02:00:26;18.50;99.90
46758;DHT22;32509;47.750;-3.396;2023-08-31T02:02:52;18.50;99.90
46758;DHT22;32509;47.750;-3.396;2023-08-31T02:05:18;18.50;99.90
46758;DHT22;32509;47.750;-3.396;2023-08-31T02:07:43;18.50;99.90
46758;DHT22;32509;47.750;-3.396;2023-08-31T02:10:09;18.50;99.90
46758;DHT22;32509;47.750;-3.396;2023-08-31T02:12:35;18.50;99.90
46758;DHT22;32509;47.750;-3.396;2023-08-31T02:15:05;18.50;99.90
46758;DHT22;32509;47.750;-3.396;2023-08-31T02:17:34;18.50;99.90
46758;DHT22;32509;47.750;-3.396;2023-08-31T02:20:00;18.50;99.90
46758;DHT22;32509;47.750;-3.396;2023-08-31T02:22:27;18.50;99.90
46758;DHT22;32509;47.750;-3.396;2023-08-31T02:24:53;18.50;99.90
46758;DHT22;32509;47.750;-3.396;2023-08-31T02:27:18;18.50;99.90
46758;DHT22;32509;47.750;-3.396;2023-08-31T02:29:44;18.50;99.90
46758;DHT22;32509;47.750;-3.396;2023-08-31T02:32:10;18.50;99.90
46758;DHT22;32509;47.750;-3.396;2023-08-31T02:34:35;18.50;99.90
46758;DHT22;32509;47.750;-3.396;2023-08-31T02:37:01;18.50;99.90
46758;DHT22;32509;47.750;-3.396;2023-08-31T02:39:27;18.50;99.90
46758;DHT22;32509;47.750;-3.396;2023-08-31T02:41:53;18.50;99.90
46758;DHT22;32509;47.750;-3.396;2023-08-31T02:44:18;18.50;99.90
46758;DHT22;32509;47.750;-3.396;2023-08-31T02:46:44;18.50;99.90
46758;DHT22;32509;47.750;-3.396;2023-08-31T02:49:10;18.50;99.90
46758;DHT22;32509;47.750;-3.396;2023-08-31T02:51:38;18.50;99.90
46758;DHT22;32509;47.750;-3.396;2023-08-31T02:54:04;18.50;99.90
46758;DHT22;32509;47.750;-3.396;2023-08-31T02:56:29;18.50;99.90
46758;DHT22;32509;47.750;-3.396;2023-08-31T02:58:55;18.50;99.90
46758;DHT22;32509;47.750;-3.396;2023-08-31T03:01:21;18.50;99.90
46758;DHT22;32509;47.750;-3.396;2023-08-31T03:03:48;18.50;99.90
46758;DHT22;32509;47.750;-3.396;2023-08-31T03:06:14;18.50;99.90
46758;DHT22;32509;47.750;-3.396;2023-08-31T03:08:41;18.50;99.90
46758;DHT22;32509;47.750;-3.396;2023-08-31T03:11:07;18.50;99.90
46758;DHT22;32509;47.750;-3.396;2023-08-31T03:13:33;18.50;99.90
46758;DHT22;32509;47.750;-3.396;2023-08-31T03:16:00;18.50;99.90
46758;DHT22;32509;47.750;-3.396;2023-08-31T03:18:25;18.50;99.90
46758;DHT22;32509;47.750;-3.396;2023-08-31T03:20:51;18.50;99.90
46758;DHT22;32509;47.750;-3.396;2023-08-31T03:23:17;18.50;99.90
46758;DHT22;32509;47.750;-3.396;2023-08-31T03:25:43;18.50;99.90
46758;DHT22;32509;47.750;-3.396;2023-08-31T03:28:09;18.50;99.90
46758;DHT22;32509;47.750;-3.396;2023-08-31T03:30:35;18.50;99.90
46758;DHT22;32509;47.750;-3.396;2023-08-31T03:33:01;18.50;99.90
46758;DHT22;32509;47.750;-3.396;2023-08-31T03:35:28;18.50;99.90
46758;DHT22;32509;47.750;-3.396;2023-08-31T03:37:55;18.50;99.90
46758;DHT22;32509;47.750;-3.396;2023-08-31T03:40:21;18.50;99.90
46758;DHT22;32509;47.750;-3.396;2023-08-31T03:42:49;18.50;99.90
46758;DHT22;32509;47.750;-3.396;2023-08-31T03:45:15;18.50;99.90
46758;DHT22;32509;47.750;-3.396;2023-08-31T03:47:40;18.50;99.90
46758;DHT22;32509;47.750;-3.396;2023-08-31T03:50:07;18.50;99.90
46758;DHT22;32509;47.750;-3.396;2023-08-31T03:52:33;18.50;99.90
46758;DHT22;32509;47.750;-3.396;2023-08-31T03:54:59;18.50;99.90
46758;DHT22;32509;47.750;-3.396;2023-08-31T03:57:25;18.50;99.90
46758;DHT22;32509;47.750;-3.396;2023-08-31T03:59:51;18.50;99.90
46758;DHT22;32509;47.750;-3.396;2023-08-31T04:02:18;18.50;99.90
46758;DHT22;32509;47.750;-3.396;2023-08-31T04:04:47;18.50;99.90
46758;DHT22;32509;47.750;-3.396;2023-08-31T04:07:13;18.50;99.90
46758;DHT22;32509;47.750;-3.396;2023-08-31T04:09:38;18.50;99.90
46758;DHT22;32509;47.750;-3.396;2023-08-31T04:12:04;18.50;99.90
46758;DHT22;32509;47.750;-3.396;2023-08-31T04:14:30;18.50;99.90
46758;DHT22;32509;47.750;-3.396;2023-08-31T04:16:56;18.50;99.90
46758;DHT22;32509;47.750;-3.396;2023-08-31T04:19:22;18.50;99.90
46758;DHT22;32509;47.750;-3.396;2023-08-31T04:21:48;18.60;99.90
46758;DHT22;32509;47.750;-3.396;2023-08-31T04:24:14;18.60;99.90
46758;DHT22;32509;47.750;-3.396;2023-08-31T04:26:40;18.60;99.90
46758;DHT22;32509;47.750;-3.396;2023-08-31T04:29:06;18.60;99.90
46758;DHT22;32509;47.750;-3.396;2023-08-31T04:31:32;18.60;99.90
46758;DHT22;32509;47.750;-3.396;2023-08-31T04:33:58;18.60;99.90
46758;DHT22;32509;47.750;-3.396;2023-08-31T04:36:24;18.70;99.90
46758;DHT22;32509;47.750;-3.396;2023-08-31T04:38:51;18.60;99.90
46758;DHT22;32509;47.750;-3.396;2023-08-31T04:41:17;18.70;99.90
46758;DHT22;32509;47.750;-3.396;2023-08-31T04:43:43;18.70;99.90
46758;DHT22;32509;47.750;-3.396;2023-08-31T04:46:09;18.70;99.90
46758;DHT22;32509;47.750;-3.396;2023-08-31T04:48:35;18.70;99.90
46758;DHT22;32509;47.750;-3.396;2023-08-31T04:51:02;18.70;99.90
46758;DHT22;32509;47.750;-3.396;2023-08-31T04:53:29;18.70;99.90
46758;DHT22;32509;47.750;-3.396;2023-08-31T04:55:55;18.60;99.90
46758;DHT22;32509;47.750;-3.396;2023-08-31T04:58:21;18.70;99.90
46758;DHT22;32509;47.750;-3.396;2023-08-31T05:00:47;18.60;99.90
46758;DHT22;32509;47.750;-3.396;2023-08-31T05:03:14;18.60;99.90
46758;DHT22;32509;47.750;-3.396;2023-08-31T05:05:40;18.60;99.90
46758;DHT22;32509;47.750;-3.396;2023-08-31T05:08:08;18.60;99.90
46758;DHT22;32509;47.750;-3.396;2023-08-31T05:10:36;18.60;99.90
46758;DHT22;32509;47.750;-3.396;2023-08-31T05:13:01;18.60;99.90
46758;DHT22;32509;47.750;-3.396;2023-08-31T05:15:29;18.60;99.90
46758;DHT22;32509;47.750;-3.396;2023-08-31T05:17:55;18.60;99.90
46758;DHT22;32509;47.750;-3.396;2023-08-31T05:20:21;18.60;99.90
46758;DHT22;32509;47.750;-3.396;2023-08-31T05:22:49;18.60;99.90
46758;DHT22;32509;47.750;-3.396;2023-08-31T05:25:17;18.60;99.90
46758;DHT22;32509;47.750;-3.396;2023-08-31T05:27:43;18.60;99.90
46758;DHT22;32509;47.750;-3.396;2023-08-31T05:30:09;18.60;99.90
46758;DHT22;32509;47.750;-3.396;2023-08-31T05:32:34;18.60;99.90
46758;DHT22;32509;47.750;-3.396;2023-08-31T05:35:00;18.60;99.90
46758;DHT22;32509;47.750;-3.396;2023-08-31T05:37:26;18.60;99.90
46758;DHT22;32509;47.750;-3.396;2023-08-31T05:39:57;18.60;99.90
46758;DHT22;32509;47.750;-3.396;2023-08-31T05:42:22;18.50;99.90
46758;DHT22;32509;47.750;-3.396;2023-08-31T05:44:49;18.50;99.90
46758;DHT22;32509;47.750;-3.396;2023-08-31T05:47:14;18.60;99.90
46758;DHT22;32509;47.750;-3.396;2023-08-31T05:49:40;18.60;99.90
46758;DHT22;32509;47.750;-3.396;2023-08-31T05:52:06;18.60;99.90
46758;DHT22;32509;47.750;-3.396;2023-08-31T05:54:32;18.60;99.90
46758;DHT22;32509;47.750;-3.396;2023-08-31T05:56:58;18.60;99.90
46758;DHT22;32509;47.750;-3.396;2023-08-31T05:59:23;18.60;99.90
46758;DHT22;32509;47.750;-3.396;2023-08-31T06:01:49;18.60;99.90
46758;DHT22;32509;47.750;-3.396;2023-08-31T06:04:15;18.60;99.90
46758;DHT22;32509;47.750;-3.396;2023-08-31T06:06:41;18.60;99.90
46758;DHT22;32509;47.750;-3.396;2023-08-31T06:09:06;18.60;99.90
46758;DHT22;32509;47.750;-3.396;2023-08-31T06:11:32;18.60;99.90
46758;DHT22;32509;47.750;-3.396;2023-08-31T06:13:58;18.60;99.90
46758;DHT22;32509;47.750;-3.396;2023-08-31T06:16:24;18.60;99.90
46758;DHT22;32509;47.750;-3.396;2023-08-31T06:18:50;18.60;99.90
46758;DHT22;32509;47.750;-3.396;2023-08-31T06:21:16;18.60;99.90
46758;DHT22;32509;47.750;-3.396;2023-08-31T06:23:42;18.60;99.90
46758;DHT22;32509;47.750;-3.396;2023-08-31T06:26:08;18.60;99.90
46758;DHT22;32509;47.750;-3.396;2023-08-31T06:28:34;18.60;99.90
46758;DHT22;32509;47.750;-3.396;2023-08-31T06:31:00;18.60;99.90
46758;DHT22;32509;47.750;-3.396;2023-08-31T06:33:25;18.60;99.90
46758;DHT22;32509;47.750;-3.396;2023-08-31T06:35:51;18.70;99.90
46758;DHT22;32509;47.750;-3.396;2023-08-31T06:38:18;18.70;99.90
46758;DHT22;32509;47.750;-3.396;2023-08-31T06:40:44;18.70;99.90
46758;DHT22;32509;47.750;-3.396;2023-08-31T06:43:10;18.70;99.90
46758;DHT22;32509;47.750;-3.396;2023-08-31T06:45:35;18.70;99.90
46758;DHT22;32509;47.750;-3.396;2023-08-31T06:48:02;18.70;99.90
46758;DHT22;32509;47.750;-3.396;2023-08-31T06:50:28;18.70;99.90
46758;DHT22;32509;47.750;-3.396;2023-08-31T06:52:56;18.70;99.90
46758;DHT22;32509;47.750;-3.396;2023-08-31T06:55:22;18.70;99.90
46758;DHT22;32509;47.750;-3.396;2023-08-31T06:57:49;18.70;99.90
46758;DHT22;32509;47.750;-3.396;2023-08-31T07:00:15;18.70;99.90
46758;DHT22;32509;47.750;-3.396;2023-08-31T07:02:41;18.70;99.90
46758;DHT22;32509;47.750;-3.396;2023-08-31T07:05:07;18.70;99.90
46758;DHT22;32509;47.750;-3.396;2023-08-31T07:07:33;18.70;99.90
46758;DHT22;32509;47.750;-3.396;2023-08-31T07:09:59;18.80;99.90
46758;DHT22;32509;47.750;-3.396;2023-08-31T07:12:25;18.80;99.90
46758;DHT22;32509;47.750;-3.396;2023-08-31T07:14:51;18.80;99.90
46758;DHT22;32509;47.750;-3.396;2023-08-31T07:17:19;18.80;99.90
46758;DHT22;32509;47.750;-3.396;2023-08-31T07:19:45;18.80;99.90
46758;DHT22;32509;47.750;-3.396;2023-08-31T07:22:11;18.80;99.90
46758;DHT22;32509;47.750;-3.396;2023-08-31T07:24:37;18.80;99.90
46758;DHT22;32509;47.750;-3.396;2023-08-31T07:27:04;18.80;99.90
46758;DHT22;32509;47.750;-3.396;2023-08-31T07:29:30;18.80;99.90
46758;DHT22;32509;47.750;-3.396;2023-08-31T07:31:56;18.80;99.90
46758;DHT22;32509;47.750;-3.396;2023-08-31T07:34:23;18.80;99.90
46758;DHT22;32509;47.750;-3.396;2023-08-31T07:36:49;18.80;99.90
46758;DHT22;32509;47.750;-3.396;2023-08-31T07:39:14;18.90;99.90
46758;DHT22;32509;47.750;-3.396;2023-08-31T07:41:43;18.90;99.90
46758;DHT22;32509;47.750;-3.396;2023-08-31T07:44:09;18.90;99.90
46758;DHT22;32509;47.750;-3.396;2023-08-31T07:46:34;18.90;99.90
46758;DHT22;32509;47.750;-3.396;2023-08-31T07:49:00;18.90;99.90
46758;DHT22;32509;47.750;-3.396;2023-08-31T07:51:27;18.90;99.90
46758;DHT22;32509;47.750;-3.396;2023-08-31T07:53:53;18.90;99.90
46758;DHT22;32509;47.750;-3.396;2023-08-31T07:56:19;18.90;99.90
46758;DHT22;32509;47.750;-3.396;2023-08-31T07:58:45;18.90;99.90
46758;DHT22;32509;47.750;-3.396;2023-08-31T08:01:10;18.90;99.90
46758;DHT22;32509;47.750;-3.396;2023-08-31T08:03:36;18.90;99.90
46758;DHT22;32509;47.750;-3.396;2023-08-31T08:06:02;19.00;99.90
46758;DHT22;32509;47.750;-3.396;2023-08-31T08:08:29;19.00;99.90
46758;DHT22;32509;47.750;-3.396;2023-08-31T08:10:55;19.00;99.90
46758;DHT22;32509;47.750;-3.396;2023-08-31T08:13:20;19.00;99.90
46758;DHT22;32509;47.750;-3.396;2023-08-31T08:15:46;19.00;99.90
46758;DHT22;32509;47.750;-3.396;2023-08-31T08:18:12;19.00;99.90
46758;DHT22;32509;47.750;-3.396;2023-08-31T08:20:38;19.00;99.90
46758;DHT22;32509;47.750;-3.396;2023-08-31T08:23:05;19.00;99.90
46758;DHT22;32509;47.750;-3.396;2023-08-31T08:25:31;19.00;99.90
46758;DHT22;32509;47.750;-3.396;2023-08-31T08:27:57;19.00;99.90
46758;DHT22;32509;47.750;-3.396;2023-08-31T08:30:23;19.00;99.90
46758;DHT22;32509;47.750;-3.396;2023-08-31T08:32:49;19.10;99.90
46758;DHT22;32509;47.750;-3.396;2023-08-31T08:35:15;19.10;99.90
46758;DHT22;32509;47.750;-3.396;2023-08-31T08:37:41;19.10;99.90
46758;DHT22;32509;47.750;-3.396;2023-08-31T08:40:07;19.00;99.90
46758;DHT22;32509;47.750;-3.396;2023-08-31T08:42:41;19.10;99.90
46758;DHT22;32509;47.750;-3.396;2023-08-31T08:45:16;19.10;99.90
46758;DHT22;32509;47.750;-3.396;2023-08-31T08:47:46;19.10;99.90
46758;DHT22;32509;47.750;-3.396;2023-08-31T08:50:12;19.10;99.90
46758;DHT22;32509;47.750;-3.396;2023-08-31T08:52:42;19.10;99.90
46758;DHT22;32509;47.750;-3.396;2023-08-31T08:55:08;19.20;99.90
46758;DHT22;32509;47.750;-3.396;2023-08-31T08:57:35;19.20;99.90
46758;DHT22;32509;47.750;-3.396;2023-08-31T09:00:01;19.20;99.90
46758;DHT22;32509;47.750;-3.396;2023-08-31T09:02:28;19.20;99.90
46758;DHT22;32509;47.750;-3.396;2023-08-31T09:04:54;19.20;99.90
46758;DHT22;32509;47.750;-3.396;2023-08-31T09:07:24;19.20;99.90
46758;DHT22;32509;47.750;-3.396;2023-08-31T09:09:53;19.20;99.90
46758;DHT22;32509;47.750;-3.396;2023-08-31T09:12:22;19.20;99.90
46758;DHT22;32509;47.750;-3.396;2023-08-31T09:15:03;19.20;99.90
46758;DHT22;32509;47.750;-3.396;2023-08-31T09:17:39;19.30;99.90
46758;DHT22;32509;47.750;-3.396;2023-08-31T09:20:05;19.30;99.90
46758;DHT22;32509;47.750;-3.396;2023-08-31T09:22:32;19.30;99.90
46758;DHT22;32509;47.750;-3.396;2023-08-31T09:24:58;19.20;99.90
46758;DHT22;32509;47.750;-3.396;2023-08-31T09:27:25;19.30;99.90
46758;DHT22;32509;47.750;-3.396;2023-08-31T09:29:54;19.30;99.90
46758;DHT22;32509;47.750;-3.396;2023-08-31T09:32:20;19.30;99.90
46758;DHT22;32509;47.750;-3.396;2023-08-31T09:34:47;19.30;99.90
46758;DHT22;32509;47.750;-3.396;2023-08-31T09:37:15;19.30;99.90
46758;DHT22;32509;47.750;-3.396;2023-08-31T09:39:44;19.30;99.90
46758;DHT22;32509;47.750;-3.396;2023-08-31T09:42:10;19.40;99.90
46758;DHT22;32509;47.750;-3.396;2023-08-31T09:44:40;19.30;99.90
46758;DHT22;32509;47.750;-3.396;2023-08-31T09:47:08;19.40;99.90
46758;DHT22;32509;47.750;-3.396;2023-08-31T09:49:34;19.40;99.90
46758;DHT22;32509;47.750;-3.396;2023-08-31T09:52:03;19.40;99.90
46758;DHT22;32509;47.750;-3.396;2023-08-31T09:54:30;19.40;99.90
46758;DHT22;32509;47.750;-3.396;2023-08-31T09:56:57;19.40;99.90
46758;DHT22;32509;47.750;-3.396;2023-08-31T09:59:26;19.40;99.90
46758;DHT22;32509;47.750;-3.396;2023-08-31T10:01:52;19.50;99.90
46758;DHT22;32509;47.750;-3.396;2023-08-31T10:04:18;19.50;99.90
46758;DHT22;32509;47.750;-3.396;2023-08-31T10:06:44;19.50;99.90
46758;DHT22;32509;47.750;-3.396;2023-08-31T10:09:10;19.50;99.90
46758;DHT22;32509;47.750;-3.396;2023-08-31T10:11:38;19.50;99.90
46758;DHT22;32509;47.750;-3.396;2023-08-31T10:14:05;19.60;99.90
46758;DHT22;32509;47.750;-3.396;2023-08-31T10:16:31;19.60;99.90
46758;DHT22;32509;47.750;-3.396;2023-08-31T10:18:57;19.60;99.90
46758;DHT22;32509;47.750;-3.396;2023-08-31T10:21:23;19.60;99.90
46758;DHT22;32509;47.750;-3.396;2023-08-31T10:23:50;19.70;99.90
46758;DHT22;32509;47.750;-3.396;2023-08-31T10:26:35;19.70;99.90
46758;DHT22;32509;47.750;-3.396;2023-08-31T10:29:01;19.70;99.90
46758;DHT22;32509;47.750;-3.396;2023-08-31T10:31:34;19.70;99.90
46758;DHT22;32509;47.750;-3.396;2023-08-31T10:34:05;19.70;99.90
46758;DHT22;32509;47.750;-3.396;2023-08-31T10:36:40;19.80;99.90
46758;DHT22;32509;47.750;-3.396;2023-08-31T10:41:37;19.80;99.90
46758;DHT22;32509;47.750;-3.396;2023-08-31T10:44:18;19.80;99.90
46758;DHT22;32509;47.750;-3.396;2023-08-31T10:46:44;19.80;99.90
46758;DHT22;32509;47.750;-3.396;2023-08-31T10:51:37;19.80;99.90
46758;DHT22;32509;47.750;-3.396;2023-08-31T10:54:11;19.80;99.90
46758;DHT22;32509;47.750;-3.396;2023-08-31T10:59:50;19.80;99.90
46758;DHT22;32509;47.750;-3.396;2023-08-31T11:07:35;19.70;99.90
46758;DHT22;32509;47.750;-3.396;2023-08-31T11:10:22;19.70;99.90
46758;DHT22;32509;47.750;-3.396;2023-08-31T11:12:56;19.70;99.90
46758;DHT22;32509;47.750;-3.396;2023-08-31T11:15:24;19.70;99.90
46758;DHT22;32509;47.750;-3.396;2023-08-31T11:17:55;19.70;99.90
46758;DHT22;32509;47.750;-3.396;2023-08-31T11:20:22;19.70;99.90
46758;DHT22;32509;47.750;-3.396;2023-08-31T11:22:49;19.70;99.90
46758;DHT22;32509;47.750;-3.396;2023-08-31T11:25:16;19.70;99.90
46758;DHT22;32509;47.750;-3.396;2023-08-31T11:27:52;19.70;99.90
46758;DHT22;32509;47.750;-3.396;2023-08-31T11:30:18;19.70;99.90
46758;DHT22;32509;47.750;-3.396;2023-08-31T11:32:50;19.80;99.90
46758;DHT22;32509;47.750;-3.396;2023-08-31T11:35:17;19.80;99.90
46758;DHT22;32509;47.750;-3.396;2023-08-31T11:37:43;19.70;99.90
46758;DHT22;32509;47.750;-3.396;2023-08-31T11:40:10;19.70;99.90
46758;DHT22;32509;47.750;-3.396;2023-08-31T11:42:37;19.80;99.90
46758;DHT22;32509;47.750;-3.396;2023-08-31T11:45:03;19.80;99.90
46758;DHT22;32509;47.750;-3.396;2023-08-31T11:47:31;19.80;99.90
46758;DHT22;32509;47.750;-3.396;2023-08-31T11:49:59;19.90;99.90
46758;DHT22;32509;47.750;-3.396;2023-08-31T11:52:25;19.90;99.90
46758;DHT22;32509;47.750;-3.396;2023-08-31T11:54:54;19.90;99.90
46758;DHT22;32509;47.750;-3.396;2023-08-31T11:57:25;19.90;99.90
46758;DHT22;32509;47.750;-3.396;2023-08-31T11:59:51;20.00;99.90
46758;DHT22;32509;47.750;-3.396;2023-08-31T12:02:20;20.00;99.90
46758;DHT22;32509;47.750;-3.396;2023-08-31T12:04:47;19.90;99.90
46758;DHT22;32509;47.750;-3.396;2023-08-31T12:07:17;20.00;99.90
46758;DHT22;32509;47.750;-3.396;2023-08-31T12:09:44;20.00;99.90
46758;DHT22;32509;47.750;-3.396;2023-08-31T12:12:11;20.00;99.90
46758;DHT22;32509;47.750;-3.396;2023-08-31T12:14:38;20.00;99.90
46758;DHT22;32509;47.750;-3.396;2023-08-31T12:17:06;20.00;99.90
46758;DHT22;32509;47.750;-3.396;2023-08-31T12:19:33;20.10;99.90
46758;DHT22;32509;47.750;-3.396;2023-08-31T12:22:01;20.10;99.90
46758;DHT22;32509;47.750;-3.396;2023-08-31T12:24:27;20.10;99.90
46758;DHT22;32509;47.750;-3.396;2023-08-31T12:26:53;20.10;99.90
46758;DHT22;32509;47.750;-3.396;2023-08-31T12:29:22;20.10;99.90
46758;DHT22;32509;47.750;-3.396;2023-08-31T12:31:49;20.10;99.90
46758;DHT22;32509;47.750;-3.396;2023-08-31T12:34:15;20.10;99.90
46758;DHT22;32509;47.750;-3.396;2023-08-31T12:36:41;20.10;99.90
46758;DHT22;32509;47.750;-3.396;2023-08-31T12:39:07;20.10;99.90
46758;DHT22;32509;47.750;-3.396;2023-08-31T12:41:39;20.20;99.90
46758;DHT22;32509;47.750;-3.396;2023-08-31T12:44:06;20.20;99.90
46758;DHT22;32509;47.750;-3.396;2023-08-31T12:46:32;20.30;99.90
46758;DHT22;32509;47.750;-3.396;2023-08-31T12:49:02;20.30;99.90
46758;DHT22;32509;47.750;-3.396;2023-08-31T12:51:29;20.30;99.90
46758;DHT22;32509;47.750;-3.396;2023-08-31T12:53:56;20.30;99.90
46758;DHT22;32509;47.750;-3.396;2023-08-31T12:56:22;20.30;99.90
46758;DHT22;32509;47.750;-3.396;2023-08-31T12:58:52;20.30;99.90
46758;DHT22;32509;47.750;-3.396;2023-08-31T13:01:19;20.30;99.90
46758;DHT22;32509;47.750;-3.396;2023-08-31T13:03:45;20.30;99.90
46758;DHT22;32509;47.750;-3.396;2023-08-31T13:06:15;20.30;99.90
46758;DHT22;32509;47.750;-3.396;2023-08-31T13:08:45;20.40;99.90
46758;DHT22;32509;47.750;-3.396;2023-08-31T13:11:11;20.40;99.90
46758;DHT22;32509;47.750;-3.396;2023-08-31T13:13:38;20.40;99.90
46758;DHT22;32509;47.750;-3.396;2023-08-31T13:16:04;20.40;99.90
46758;DHT22;32509;47.750;-3.396;2023-08-31T13:18:30;20.40;99.90
46758;DHT22;32509;47.750;-3.396;2023-08-31T13:20:55;20.40;99.90
46758;DHT22;32509;47.750;-3.396;2023-08-31T13:23:22;20.40;99.90
46758;DHT22;32509;47.750;-3.396;2023-08-31T13:25:48;20.50;99.90
46758;DHT22;32509;47.750;-3.396;2023-08-31T13:28:15;20.50;99.90
46758;DHT22;32509;47.750;-3.396;2023-08-31T13:30:41;20.40;99.90
46758;DHT22;32509;47.750;-3.396;2023-08-31T13:33:08;20.50;99.90
46758;DHT22;32509;47.750;-3.396;2023-08-31T13:35:35;20.50;99.90
46758;DHT22;32509;47.750;-3.396;2023-08-31T13:38:02;20.40;99.90
46758;DHT22;32509;47.750;-3.396;2023-08-31T13:40:29;20.50;99.90
46758;DHT22;32509;47.750;-3.396;2023-08-31T13:42:59;20.50;99.90
46758;DHT22;32509;47.750;-3.396;2023-08-31T13:45:34;20.40;99.90
46758;DHT22;32509;47.750;-3.396;2023-08-31T13:48:00;20.50;99.90
46758;DHT22;32509;47.750;-3.396;2023-08-31T13:50:27;20.50;99.90
46758;DHT22;32509;47.750;-3.396;2023-08-31T13:52:53;20.40;99.90
46758;DHT22;32509;47.750;-3.396;2023-08-31T13:55:19;20.40;99.90
46758;DHT22;32509;47.750;-3.396;2023-08-31T13:57:45;20.40;99.90
46758;DHT22;32509;47.750;-3.396;2023-08-31T14:00:14;20.30;99.90
46758;DHT22;32509;47.750;-3.396;2023-08-31T14:02:41;20.30;99.90
46758;DHT22;32509;47.750;-3.396;2023-08-31T14:05:07;20.30;99.90
46758;DHT22;32509;47.750;-3.396;2023-08-31T14:07:34;20.30;99.90
46758;DHT22;32509;47.750;-3.396;2023-08-31T14:10:00;20.30;99.90
46758;DHT22;32509;47.750;-3.396;2023-08-31T14:12:26;20.30;99.90
46758;DHT22;32509;47.750;-3.396;2023-08-31T14:14:52;20.30;99.90
46758;DHT22;32509;47.750;-3.396;2023-08-31T14:17:18;20.30;99.90
46758;DHT22;32509;47.750;-3.396;2023-08-31T14:19:44;20.30;99.90
46758;DHT22;32509;47.750;-3.396;2023-08-31T14:22:10;20.30;99.90
46758;DHT22;32509;47.750;-3.396;2023-08-31T14:24:36;20.30;99.90
46758;DHT22;32509;47.750;-3.396;2023-08-31T14:27:03;20.30;99.90
46758;DHT22;32509;47.750;-3.396;2023-08-31T14:29:29;20.30;99.90
46758;DHT22;32509;47.750;-3.396;2023-08-31T14:31:55;20.30;99.90
46758;DHT22;32509;47.750;-3.396;2023-08-31T14:34:23;20.30;99.90
46758;DHT22;32509;47.750;-3.396;2023-08-31T14:36:50;20.30;99.90
46758;DHT22;32509;47.750;-3.396;2023-08-31T14:39:17;20.30;99.90
46758;DHT22;32509;47.750;-3.396;2023-08-31T14:41:43;20.30;99.90
46758;DHT22;32509;47.750;-3.396;2023-08-31T14:44:09;20.30;99.90
46758;DHT22;32509;47.750;-3.396;2023-08-31T14:46:36;20.30;99.90
46758;DHT22;32509;47.750;-3.396;2023-08-31T14:49:02;20.30;99.90
46758;DHT22;32509;47.750;-3.396;2023-08-31T14:51:29;20.30;99.90
46758;DHT22;32509;47.750;-3.396;2023-08-31T14:53:55;20.20;99.90
46758;DHT22;32509;47.750;-3.396;2023-08-31T14:56:21;20.20;99.90
46758;DHT22;32509;47.750;-3.396;2023-08-31T15:02:08;20.20;99.90
46758;DHT22;32509;47.750;-3.396;2023-08-31T15:04:34;20.10;99.90
46758;DHT22;32509;47.750;-3.396;2023-08-31T15:07:00;20.10;99.90
46758;DHT22;32509;47.750;-3.396;2023-08-31T15:09:26;20.10;99.90
46758;DHT22;32509;47.750;-3.396;2023-08-31T15:11:52;20.10;99.90
46758;DHT22;32509;47.750;-3.396;2023-08-31T15:14:18;20.10;99.90
46758;DHT22;32509;47.750;-3.396;2023-08-31T15:16:43;20.10;99.90
46758;DHT22;32509;47.750;-3.396;2023-08-31T15:19:09;20.10;99.90
46758;DHT22;32509;47.750;-3.396;2023-08-31T15:21:35;20.20;99.90
46758;DHT22;32509;47.750;-3.396;2023-08-31T15:24:01;20.10;99.90
46758;DHT22;32509;47.750;-3.396;2023-08-31T15:26:28;20.20;99.90
46758;DHT22;32509;47.750;-3.396;2023-08-31T15:28:53;20.20;99.90
46758;DHT22;32509;47.750;-3.396;2023-08-31T15:31:19;20.20;99.90
46758;DHT22;32509;47.750;-3.396;2023-08-31T15:33:45;20.10;99.90
46758;DHT22;32509;47.750;-3.396;2023-08-31T15:36:11;20.10;99.90